createdAt,value
2022-07-26T00:00:22.559Z,52.69
2022-07-26T00:03:07.798Z,53.13
2022-07-26T00:05:53.235Z,52.78
2022-07-26T00:08:38.557Z,52.74
2022-07-26T00:11:25.630Z,52.89
2022-07-26T00:14:11.169Z,52.68
2022-07-26T00:16:56.665Z,53.10
2022-07-26T00:19:42.057Z,53.17
2022-07-26T00:22:36.277Z,53.06
2022-07-26T00:25:21.659Z,52.87
2022-07-26T00:28:07.413Z,53.06
2022-07-26T00:30:55.039Z,52.74
2022-07-26T00:33:40.415Z,52.90
2022-07-26T00:36:26.051Z,53.18
2022-07-26T00:39:11.855Z,52.73
2022-07-26T00:41:57.299Z,52.65
2022-07-26T00:44:45.302Z,52.92
2022-07-26T00:47:30.602Z,52.62
2022-07-26T00:50:18.256Z,52.74
2022-07-26T00:53:04.006Z,52.52
2022-07-26T00:55:50.450Z,52.87
2022-07-26T00:58:36.116Z,52.98
2022-07-26T01:01:21.407Z,52.83
2022-07-26T01:04:06.893Z,52.76
2022-07-26T01:06:53.348Z,52.59
2022-07-26T01:09:39.248Z,52.80
2022-07-26T01:12:24.835Z,52.66
2022-07-26T01:15:13.013Z,52.56
2022-07-26T01:17:58.342Z,52.53
2022-07-26T01:20:45.019Z,52.69
2022-07-26T01:23:33.406Z,52.46
2022-07-26T01:26:18.861Z,52.73
2022-07-26T01:29:04.690Z,52.85
2022-07-26T01:31:51.024Z,53.09
2022-07-26T01:34:36.263Z,53.00
2022-07-26T01:37:21.521Z,52.53
2022-07-26T01:40:07.391Z,52.96
2022-07-26T01:42:54.634Z,52.73
2022-07-26T01:45:40.064Z,52.81
2022-07-26T01:48:25.398Z,52.71
2022-07-26T01:51:10.586Z,52.78
2022-07-26T01:53:56.250Z,52.61
2022-07-26T01:56:43.366Z,52.74
2022-07-26T01:59:28.816Z,53.05
2022-07-26T02:02:14.505Z,52.68
2022-07-26T02:05:00.107Z,52.50
2022-07-26T02:07:45.422Z,52.98
2022-07-26T02:10:50.612Z,52.85
2022-07-26T02:13:38.501Z,52.82
2022-07-26T02:16:24.355Z,52.62
2022-07-26T02:19:10.078Z,52.67
2022-07-26T02:21:55.393Z,52.79
2022-07-26T02:24:40.771Z,52.76
2022-07-26T02:27:26.124Z,52.84
2022-07-26T02:30:12.157Z,52.63
2022-07-26T02:32:57.768Z,52.76
2022-07-26T02:35:44.190Z,52.83
2022-07-26T02:38:29.482Z,52.61
2022-07-26T02:41:14.642Z,52.76
2022-07-26T02:44:00.686Z,52.57
2022-07-26T02:46:46.006Z,52.68
2022-07-26T02:49:31.725Z,52.82
2022-07-26T02:52:17.108Z,52.70
2022-07-26T02:55:02.296Z,52.81
2022-07-26T02:57:48.695Z,52.53
2022-07-26T03:00:33.968Z,52.80
2022-07-26T03:03:19.279Z,52.43
2022-07-26T03:06:04.952Z,52.77
2022-07-26T03:08:50.557Z,52.72
2022-07-26T03:11:36.045Z,52.62
2022-07-26T03:14:21.293Z,52.70
2022-07-26T03:17:06.590Z,52.48
2022-07-26T03:19:52.092Z,52.43
2022-07-26T03:22:37.212Z,52.67
2022-07-26T03:25:22.769Z,52.75
2022-07-26T03:28:08.093Z,52.52
2022-07-26T03:30:53.471Z,52.59
2022-07-26T03:33:39.994Z,52.78
2022-07-26T03:36:25.479Z,52.62
2022-07-26T03:39:11.179Z,52.52
2022-07-26T03:41:56.666Z,52.52
2022-07-26T03:44:42.318Z,52.46
2022-07-26T03:47:27.755Z,52.61
2022-07-26T03:50:13.861Z,52.88
2022-07-26T03:52:59.420Z,52.49
2022-07-26T03:56:03.610Z,52.55
2022-07-26T03:58:48.944Z,52.44
2022-07-26T04:01:35.937Z,52.44
2022-07-26T04:04:25.175Z,53.04
2022-07-26T04:07:10.879Z,52.71
2022-07-26T04:09:57.859Z,52.95
2022-07-26T04:12:43.164Z,53.09
2022-07-26T04:15:28.347Z,53.29
2022-07-26T04:18:14.367Z,53.51
2022-07-26T04:20:59.695Z,53.37
2022-07-26T04:23:50.762Z,53.07
2022-07-26T04:26:36.553Z,52.62
2022-07-26T04:29:42.272Z,53.17
2022-07-26T04:32:28.230Z,53.05
2022-07-26T04:35:14.374Z,53.12
2022-07-26T04:37:59.962Z,52.89
2022-07-26T04:40:45.869Z,52.74
2022-07-26T04:43:31.323Z,53.42
2022-07-26T04:46:18.371Z,53.33
2022-07-26T04:49:03.723Z,53.32
2022-07-26T04:51:48.956Z,53.72
2022-07-26T04:54:34.179Z,53.79
2022-07-26T04:57:19.523Z,53.42
2022-07-26T05:00:21.400Z,53.60
2022-07-26T05:03:07.858Z,53.54
2022-07-26T05:05:53.811Z,53.84
2022-07-26T05:08:39.095Z,53.52
2022-07-26T05:11:25.205Z,53.72
2022-07-26T05:14:11.212Z,53.82
2022-07-26T05:16:56.720Z,53.43
2022-07-26T05:19:44.861Z,53.69
2022-07-26T05:22:35.419Z,53.73
2022-07-26T05:25:21.024Z,53.75
2022-07-26T05:28:06.190Z,53.92
2022-07-26T05:30:51.797Z,53.80
2022-07-26T05:33:37.139Z,53.66
2022-07-26T05:36:22.604Z,53.84
2022-07-26T05:39:08.956Z,53.69
2022-07-26T05:41:57.314Z,53.94
2022-07-26T05:44:42.928Z,53.68
2022-07-26T05:47:28.798Z,53.80
2022-07-26T05:50:14.126Z,54.50
2022-07-26T05:52:59.527Z,54.92
2022-07-26T05:55:44.866Z,54.27
2022-07-26T05:58:30.531Z,54.69
2022-07-26T06:01:16.507Z,54.47
2022-07-26T06:04:05.171Z,54.56
2022-07-26T06:06:50.532Z,54.10
2022-07-26T06:09:36.087Z,53.94
2022-07-26T06:12:21.432Z,54.17
2022-07-26T06:15:14.885Z,53.72
2022-07-26T06:18:01.445Z,53.43
2022-07-26T06:20:48.747Z,53.60
2022-07-26T06:23:35.217Z,53.15
2022-07-26T06:26:23.790Z,52.22
2022-07-26T06:29:09.802Z,52.24
2022-07-26T06:31:55.632Z,51.91
2022-07-26T06:34:41.302Z,51.63
2022-07-26T06:37:26.902Z,50.70
2022-07-26T06:40:12.907Z,50.02
2022-07-26T06:43:03.994Z,50.20
2022-07-26T06:45:50.737Z,50.21
2022-07-26T06:48:36.406Z,50.09
2022-07-26T06:51:24.895Z,49.82
2022-07-26T06:54:10.620Z,48.88
2022-07-26T06:56:56.399Z,49.32
2022-07-26T06:59:41.718Z,49.06
2022-07-26T07:02:26.987Z,48.85
2022-07-26T07:05:12.643Z,49.24
2022-07-26T07:07:58.384Z,48.72
2022-07-26T07:10:44.245Z,48.81
2022-07-26T07:13:30.345Z,48.17
2022-07-26T07:16:15.740Z,48.33
2022-07-26T07:19:00.898Z,48.44
2022-07-26T07:21:46.447Z,47.38
2022-07-26T07:24:32.586Z,46.93
2022-07-26T07:27:18.418Z,46.74
2022-07-26T07:30:05.892Z,46.37
2022-07-26T07:32:53.097Z,46.67
2022-07-26T07:35:40.208Z,46.75
2022-07-26T07:38:25.978Z,46.51
2022-07-26T07:41:11.566Z,46.08
2022-07-26T07:43:57.117Z,45.54
2022-07-26T07:46:42.627Z,45.47
2022-07-26T07:49:28.947Z,45.07
2022-07-26T07:52:14.739Z,45.29
2022-07-26T07:55:36.160Z,45.24
2022-07-26T07:58:06.093Z,44.98
2022-07-26T08:00:51.367Z,44.60
2022-07-26T08:03:38.978Z,44.69
2022-07-26T08:06:24.761Z,44.78
2022-07-26T08:09:13.184Z,44.28
2022-07-26T08:11:59.914Z,44.85
2022-07-26T08:14:45.894Z,44.71
2022-07-26T08:17:31.724Z,44.59
2022-07-26T08:20:21.030Z,44.40
2022-07-26T08:23:08.980Z,44.29
2022-07-26T08:25:57.907Z,44.49
2022-07-26T08:28:47.734Z,45.89
2022-07-26T08:31:33.801Z,47.79
2022-07-26T08:34:21.937Z,47.89
2022-07-26T08:37:16.870Z,47.20
2022-07-26T08:40:05.509Z,46.55
2022-07-26T08:42:56.830Z,45.89
2022-07-26T08:45:42.613Z,45.47
2022-07-26T08:48:29.014Z,44.94
2022-07-26T08:51:15.928Z,43.96
2022-07-26T08:54:05.620Z,43.78
2022-07-26T08:56:53.131Z,43.66
2022-07-26T08:59:39.465Z,43.83
2022-07-26T09:02:40.627Z,43.55
2022-07-26T09:05:30.900Z,43.14
2022-07-26T09:08:27.029Z,43.76
2022-07-26T09:11:33.256Z,42.93
2022-07-26T09:14:18.722Z,44.10
2022-07-26T09:17:06.188Z,43.40
2022-07-26T09:20:16.774Z,43.30
2022-07-26T09:23:08.918Z,43.40
2022-07-26T09:26:04.482Z,43.66
2022-07-26T09:29:13.346Z,43.70
2022-07-26T09:32:12.904Z,43.51
2022-07-26T09:35:44.675Z,43.59
2022-07-26T09:38:19.986Z,43.15
2022-07-26T09:41:37.363Z,43.11
2022-07-26T09:44:25.530Z,43.29
2022-07-26T09:47:11.266Z,42.50
2022-07-26T09:50:15.444Z,42.46
2022-07-26T09:53:07.427Z,41.92
2022-07-26T09:55:52.947Z,42.05
2022-07-26T09:58:38.765Z,41.33
2022-07-26T10:01:24.156Z,41.12
2022-07-26T10:04:09.642Z,41.11
2022-07-26T10:06:58.257Z,41.21
2022-07-26T10:09:57.444Z,41.57
2022-07-26T10:12:46.845Z,40.53
2022-07-26T10:15:35.692Z,40.91
2022-07-26T10:18:36.588Z,40.81
2022-07-26T10:21:27.602Z,40.77
2022-07-26T10:24:26.780Z,40.60
2022-07-26T10:27:42.019Z,40.31
2022-07-26T10:30:35.045Z,39.90
2022-07-26T10:33:24.459Z,40.73
2022-07-26T10:36:28.652Z,40.50
2022-07-26T10:39:16.316Z,40.17
2022-07-26T10:42:07.600Z,40.45
2022-07-26T10:45:16.590Z,40.26
2022-07-26T10:48:16.577Z,40.08
2022-07-26T10:51:29.614Z,40.07
2022-07-26T10:54:17.481Z,40.40
2022-07-26T10:57:06.563Z,40.22
2022-07-26T10:59:56.133Z,40.41
2022-07-26T11:02:43.974Z,40.04
2022-07-26T11:05:33.921Z,39.94
2022-07-26T11:08:19.460Z,39.83
2022-07-26T11:11:04.871Z,39.71
2022-07-26T11:13:50.833Z,39.28
2022-07-26T11:16:58.284Z,39.35
2022-07-26T11:19:43.812Z,39.48
2022-07-26T11:22:34.626Z,39.06
2022-07-26T11:25:22.303Z,39.34
2022-07-26T11:28:08.248Z,39.64
2022-07-26T11:30:59.203Z,39.43
2022-07-26T11:33:49.056Z,40.04
2022-07-26T11:36:46.303Z,40.03
2022-07-26T11:39:35.316Z,39.89
2022-07-26T11:42:22.336Z,39.58
2022-07-26T11:45:10.544Z,39.31
2022-07-26T11:47:59.159Z,39.30
2022-07-26T11:50:46.934Z,39.40
2022-07-26T11:53:37.216Z,39.29
2022-07-26T11:56:23.309Z,39.47
2022-07-26T11:59:13.854Z,39.74
2022-07-26T12:02:01.383Z,39.67
2022-07-26T12:04:47.532Z,39.58
2022-07-26T12:07:33.145Z,39.71
2022-07-26T12:10:18.399Z,39.45
2022-07-26T12:13:16.001Z,39.55
2022-07-26T12:16:01.782Z,39.69
2022-07-26T12:18:51.788Z,39.60
2022-07-26T12:21:59.283Z,39.35
2022-07-26T12:24:58.587Z,39.14
2022-07-26T12:27:47.492Z,38.91
2022-07-26T12:30:36.967Z,38.75
2022-07-26T12:33:22.549Z,38.86
2022-07-26T12:36:28.289Z,38.61
2022-07-26T12:39:22.639Z,38.80
2022-07-26T12:42:34.624Z,38.98
2022-07-26T12:45:25.807Z,38.56
2022-07-26T12:48:11.912Z,38.23
2022-07-26T12:50:58.186Z,38.26
2022-07-26T12:53:43.451Z,37.94
2022-07-26T12:56:28.726Z,38.65
2022-07-26T12:59:17.673Z,38.89
2022-07-26T13:02:04.755Z,38.58
2022-07-26T13:04:50.983Z,37.72
2022-07-26T13:07:38.705Z,38.00
2022-07-26T13:10:39.651Z,37.95
2022-07-26T13:13:25.574Z,37.30
2022-07-26T13:16:12.270Z,37.34
2022-07-26T13:18:58.115Z,37.49
2022-07-26T13:21:47.885Z,37.04
2022-07-26T13:24:38.635Z,37.81
2022-07-26T13:27:24.077Z,37.74
2022-07-26T13:30:10.004Z,37.67
2022-07-26T13:32:55.538Z,37.69
2022-07-26T13:35:42.583Z,37.64
2022-07-26T13:38:29.311Z,38.14
2022-07-26T13:41:14.696Z,37.76
2022-07-26T13:44:00.364Z,37.81
2022-07-26T13:46:45.888Z,38.46
2022-07-26T13:49:31.662Z,38.36
2022-07-26T13:52:17.094Z,38.10
2022-07-26T13:55:02.765Z,38.57
2022-07-26T13:57:55.667Z,38.69
2022-07-26T14:00:43.030Z,38.59
2022-07-26T14:03:34.997Z,38.92
2022-07-26T14:06:20.774Z,38.79
2022-07-26T14:09:10.622Z,38.91
2022-07-26T14:11:56.678Z,39.11
2022-07-26T14:14:42.253Z,39.36
2022-07-26T14:17:27.870Z,39.06
2022-07-26T14:20:14.134Z,39.02
2022-07-26T14:23:00.295Z,38.68
2022-07-26T14:25:45.923Z,38.91
2022-07-26T14:28:31.847Z,38.92
2022-07-26T14:31:17.671Z,38.46
2022-07-26T14:34:02.958Z,39.05
2022-07-26T14:36:48.117Z,38.93
2022-07-26T14:39:34.056Z,39.36
2022-07-26T14:42:19.681Z,39.00
2022-07-26T14:45:05.419Z,39.12
2022-07-26T14:47:50.806Z,39.09
2022-07-26T14:50:53.349Z,39.40
2022-07-26T14:53:42.671Z,39.79
2022-07-26T14:56:27.855Z,39.53
2022-07-26T14:59:13.025Z,40.02
2022-07-26T15:02:01.349Z,39.96
2022-07-26T15:04:50.976Z,40.29
2022-07-26T15:07:36.810Z,39.61
2022-07-26T15:10:31.079Z,40.21
2022-07-26T15:13:16.810Z,39.72
2022-07-26T15:16:02.037Z,39.84
2022-07-26T15:18:47.629Z,40.12
2022-07-26T15:21:33.217Z,40.17
2022-07-26T15:24:18.697Z,39.97
2022-07-26T15:27:04.388Z,39.55
2022-07-26T15:29:50.794Z,40.42
2022-07-26T15:32:36.500Z,40.22
2022-07-26T15:35:22.115Z,40.18
2022-07-26T15:38:07.819Z,40.00
2022-07-26T15:40:53.192Z,39.92
2022-07-26T15:43:43.932Z,39.76
2022-07-26T15:46:33.201Z,39.80
2022-07-26T15:49:19.075Z,39.90
2022-07-26T15:52:05.431Z,40.30
2022-07-26T15:54:53.135Z,40.34
2022-07-26T15:57:39.166Z,40.64
2022-07-26T16:00:24.538Z,41.00
2022-07-26T16:03:11.705Z,40.91
2022-07-26T16:05:57.109Z,41.11
2022-07-26T16:08:58.849Z,40.89
2022-07-26T16:11:48.798Z,41.20
2022-07-26T16:14:34.752Z,42.00
2022-07-26T16:17:20.131Z,42.26
2022-07-26T16:20:09.078Z,41.78
2022-07-26T16:22:55.334Z,41.85
2022-07-26T16:25:40.902Z,42.21
2022-07-26T16:28:26.224Z,41.79
2022-07-26T16:31:12.274Z,42.21
2022-07-26T16:33:57.716Z,42.22
2022-07-26T16:36:43.392Z,42.24
2022-07-26T16:39:29.106Z,42.32
2022-07-26T16:42:14.645Z,42.27
2022-07-26T16:45:00.683Z,42.60
2022-07-26T16:47:46.205Z,42.25
2022-07-26T16:50:31.964Z,43.94
2022-07-26T16:53:17.836Z,42.74
2022-07-26T16:56:03.401Z,46.10
2022-07-26T16:58:49.771Z,43.58
2022-07-26T17:01:35.456Z,43.43
2022-07-26T17:04:21.308Z,43.16
2022-07-26T17:10:12.338Z,42.97
2022-07-26T17:12:58.532Z,43.29
2022-07-26T17:15:44.574Z,43.04
2022-07-26T17:18:31.515Z,42.92
2022-07-26T17:21:17.413Z,43.07
2022-07-26T17:24:05.706Z,43.37
2022-07-26T17:26:51.546Z,43.22
2022-07-26T17:29:36.965Z,43.72
2022-07-26T17:32:22.802Z,43.53
2022-07-26T17:35:10.530Z,43.65
2022-07-26T17:37:57.463Z,43.24
2022-07-26T17:40:43.818Z,43.47
2022-07-26T17:43:36.601Z,43.38
2022-07-26T17:46:23.189Z,43.54
2022-07-26T17:49:09.490Z,43.49
2022-07-26T17:51:58.790Z,43.29
2022-07-26T17:54:44.260Z,43.64
2022-07-26T17:57:30.492Z,43.75
2022-07-26T18:00:18.134Z,43.82
2022-07-26T18:03:03.615Z,44.04
2022-07-26T18:05:50.179Z,44.22
2022-07-26T18:08:35.790Z,43.68
2022-07-26T18:11:21.143Z,43.78
2022-07-26T18:14:11.096Z,43.55
2022-07-26T18:16:56.938Z,43.72
2022-07-26T18:19:42.243Z,43.72
2022-07-26T18:22:27.654Z,44.04
2022-07-26T18:25:13.031Z,43.85
2022-07-26T18:28:02.005Z,44.03
2022-07-26T18:30:50.421Z,44.08
2022-07-26T18:33:36.203Z,44.00
2022-07-26T18:36:21.519Z,44.28
2022-07-26T18:39:06.984Z,44.35
2022-07-26T18:41:53.714Z,44.31
2022-07-26T18:44:39.637Z,44.27
2022-07-26T18:47:24.863Z,44.72
2022-07-26T18:50:12.525Z,44.54
2022-07-26T18:53:02.740Z,44.55
2022-07-26T18:55:50.648Z,44.58
2022-07-26T18:58:36.071Z,44.57
2022-07-26T19:01:21.614Z,44.93
2022-07-26T19:04:07.734Z,44.77
2022-07-26T19:06:53.871Z,45.01
2022-07-26T19:09:39.282Z,45.05
2022-07-26T19:12:25.596Z,45.17
2022-07-26T19:15:12.226Z,45.03
2022-07-26T19:17:58.061Z,44.82
2022-07-26T19:20:44.250Z,45.02
2022-07-26T19:23:29.774Z,45.68
2022-07-26T19:26:15.143Z,45.11
2022-07-26T19:29:02.309Z,45.10
2022-07-26T19:31:48.010Z,45.44
2022-07-26T19:34:33.709Z,45.13
2022-07-26T19:37:21.468Z,45.12
2022-07-26T19:40:07.722Z,45.38
2022-07-26T19:42:53.525Z,45.14
2022-07-26T19:45:39.126Z,45.12
2022-07-26T19:48:24.556Z,44.98
2022-07-26T19:51:09.903Z,45.21
2022-07-26T19:53:55.091Z,44.75
2022-07-26T19:56:41.923Z,44.82
2022-07-26T19:59:27.996Z,45.01
2022-07-26T20:02:14.112Z,45.27
2022-07-26T20:05:00.394Z,45.23
2022-07-26T20:07:47.860Z,45.25
2022-07-26T20:10:33.189Z,45.05
2022-07-26T20:13:18.687Z,45.18
2022-07-26T20:16:04.863Z,45.04
2022-07-26T20:18:50.136Z,45.34
2022-07-26T20:21:35.265Z,45.23
2022-07-26T20:24:21.175Z,45.44
2022-07-26T20:27:07.657Z,45.50
2022-07-26T20:29:57.409Z,45.03
2022-07-26T20:32:45.586Z,45.26
2022-07-26T20:35:31.460Z,45.44
2022-07-26T20:38:18.463Z,45.15
2022-07-26T20:41:05.313Z,45.21
2022-07-26T20:43:52.585Z,45.57
2022-07-26T20:46:41.840Z,45.70
2022-07-26T20:49:27.399Z,45.91
2022-07-26T20:52:12.720Z,45.71
2022-07-26T20:54:58.054Z,45.50
2022-07-26T20:57:43.379Z,45.71
2022-07-26T21:00:29.055Z,45.62
2022-07-26T21:03:16.769Z,45.79
2022-07-26T21:06:02.400Z,45.91
2022-07-26T21:08:48.208Z,45.71
2022-07-26T21:11:33.590Z,45.92
2022-07-26T21:14:19.659Z,45.85
2022-07-26T21:17:10.934Z,46.08
2022-07-26T21:19:56.940Z,46.31
2022-07-26T21:22:42.159Z,46.11
2022-07-26T21:25:27.801Z,46.33
2022-07-26T21:28:13.194Z,46.14
2022-07-26T21:30:58.523Z,46.36
2022-07-26T21:33:44.673Z,46.07
2022-07-26T21:36:30.310Z,46.20
2022-07-26T21:39:17.202Z,46.40
2022-07-26T21:42:02.477Z,46.43
2022-07-26T21:44:47.873Z,46.38
2022-07-26T21:47:33.605Z,46.50
2022-07-26T21:50:19.030Z,46.82
2022-07-26T21:53:04.410Z,46.60
2022-07-26T21:55:49.701Z,46.41
2022-07-26T21:58:36.793Z,46.43
2022-07-26T22:01:22.876Z,46.80
2022-07-26T22:04:08.624Z,46.73
2022-07-26T22:06:54.186Z,46.86
2022-07-26T22:09:39.507Z,46.55
2022-07-26T22:12:24.848Z,46.76
2022-07-26T22:15:10.697Z,46.88
2022-07-26T22:17:55.960Z,47.00
2022-07-26T22:20:42.083Z,47.25
2022-07-26T22:23:30.680Z,47.15
2022-07-26T22:26:16.293Z,47.21
2022-07-26T22:29:01.962Z,47.30
2022-07-26T22:31:47.366Z,47.32
2022-07-26T22:34:32.615Z,47.27
2022-07-26T22:37:17.928Z,47.01
2022-07-26T22:40:03.651Z,47.05
2022-07-26T22:42:49.718Z,47.03
2022-07-26T22:45:35.254Z,46.91
2022-07-26T22:48:20.836Z,47.08
2022-07-26T22:51:06.133Z,47.44
2022-07-26T22:53:51.307Z,47.14
2022-07-26T22:56:36.597Z,47.14
2022-07-26T22:59:22.622Z,47.64
2022-07-26T23:02:07.951Z,47.64
2022-07-26T23:04:53.133Z,47.48
2022-07-26T23:07:40.119Z,47.69
2022-07-26T23:10:26.285Z,47.73
2022-07-26T23:13:12.309Z,47.55
2022-07-26T23:16:00.805Z,47.67
2022-07-26T23:18:46.848Z,47.71
2022-07-26T23:21:32.030Z,47.65
2022-07-26T23:24:17.490Z,47.84
2022-07-26T23:27:03.665Z,47.91
2022-07-26T23:29:50.069Z,47.83
2022-07-26T23:32:35.579Z,47.60
2022-07-26T23:35:21.431Z,47.73
2022-07-26T23:38:06.602Z,47.78
2022-07-26T23:40:51.909Z,47.82
2022-07-26T23:43:37.064Z,47.50
2022-07-26T23:46:23.569Z,47.52
2022-07-26T23:49:09.127Z,47.28
2022-07-26T23:51:54.567Z,47.46
2022-07-26T23:54:39.895Z,47.11
2022-07-26T23:57:25.252Z,47.57
